Aviation Digital Data Service (ADDS)

Output produced by METARs form (0635 UTC 27 March 2017)
found at http://www.aviationweather.gov/adds/metars/
 
GLRB 270630Z 00000KT 8000 FEW012 25/24 Q1010 RMK BRVC
TAF GLRB 262200Z 2700/2806 00000KT 9999 SCT012 
     TEMPO 2701/2705 00000KT 9999 SCT012 
     BECMG 2706/2708 04004KT 8000 
     TEMPO 2709/2713 22010KT 9999 BKN018